Preview of NWS' New Version of Forecast
This preview is not operational and should not be used for support decisions.

Terminal Aerodrome Forecast (TAF)

Issued by National Weather Service (NWS)

                            
000
FTUS43 KDMX 181736
TAFALO
TAF
KALO 181736Z 1818/1918 28004KT P6SM BKN019
     FM182000 30008KT P6SM FEW015 BKN050
     FM190400 34006KT P6SM FEW250
     FM191600 10006KT P6SM SKC=